METAR Data
IDs: Format: Raw Decoded Include TAF

Data at: 0206 UTC 23 Apr 2021

METAR for:KPOU (Poughkeepsie/Dutches, NY, US)
Text:KPOU 230153Z AUTO 26009KT 10SM SCT060 04/M04 A2991 RMK AO2 SLP125 T00391044 TSNO
Temperature: 3.9°C ( 39°F)
Dewpoint: -4.4°C ( 24°F) [RH = 55%]
Pressure (altimeter):29.91 inches Hg (1013.0 mb) [Sea level pressure: 1012.5 mb]
Winds:from the W (260 degrees) at 10 MPH (9 knots; 4.6 m/s)
Visibility:10 or more sm (16+ km)
Ceiling:at least 12,000 feet AGL
Clouds: scattered clouds at 6000 feet AGL
QC Flag:automated observation with no human augmentation
Text:KPOU 230053Z AUTO 25011KT 10SM FEW060 04/M05 A2989 RMK AO2 SLP119 T00441050 TSNO
Temperature: 4.4°C ( 40°F)
Dewpoint: -5.0°C ( 23°F) [RH = 50%]
Pressure (altimeter):29.89 inches Hg (1012.3 mb) [Sea level pressure: 1011.9 mb]
Winds:from the WSW (250 degrees) at 13 MPH (11 knots; 5.7 m/s)
Visibility:10 or more sm (16+ km)
Ceiling:at least 12,000 feet AGL
Clouds: few clouds at 6000 feet AGL
QC Flag:automated observation with no human augmentation
Text:KPOU 222353Z 27013KT 10SM SCT065 05/M06 A2987 RMK AO2 PK WND 25027/2307 SLP111 T00501061 10083 20050 53021
Temperature: 5.0°C ( 41°F)
Dewpoint: -6.1°C ( 21°F) [RH = 44%]
Pressure (altimeter):29.87 inches Hg (1011.6 mb) [Sea level pressure: 1011.1 mb]
Winds:from the W (270 degrees) at 15 MPH (13 knots; 6.7 m/s)
Visibility:10 or more sm (16+ km)
Ceiling:at least 12,000 feet AGL
Clouds: scattered clouds at 6500 feet AGL
Text:KPOU 222253Z 26018G27KT 10SM SCT090 06/M07 A2984 RMK AO2 PK WND 25027/2249 SLP101 T00611072
Temperature: 6.1°C ( 43°F)
Dewpoint: -7.2°C ( 19°F) [RH = 38%]
Pressure (altimeter):29.84 inches Hg (1010.6 mb) [Sea level pressure: 1010.1 mb]
Winds:from the W (260 degrees) at 21 MPH (18 knots; 9.3 m/s) gusting to 31 MPH (27 knots; 13.9 m/s)
Visibility:10 or more sm (16+ km)
Ceiling:at least 12,000 feet AGL
Clouds: scattered clouds at 9000 feet AGL
Text:KPOU 222153Z 29014G23KT 10SM BKN075 07/M07 A2982 RMK AO2 PK WND 26033/2113 SLP094 T00721072
Temperature: 7.2°C ( 45°F)
Dewpoint: -7.2°C ( 19°F) [RH = 35%]
Pressure (altimeter):29.82 inches Hg (1009.9 mb) [Sea level pressure: 1009.4 mb]
Winds:from the WNW (290 degrees) at 16 MPH (14 knots; 7.2 m/s) gusting to 26 MPH (23 knots; 11.8 m/s)
Visibility:10 or more sm (16+ km)
Ceiling:7500 feet AGL
Clouds: broken clouds at 7500 feet AGL
Text:KPOU 222053Z 28019G31KT 10SM BKN075 OVC090 07/M07 A2980 RMK AO2 PK WND 31031/2049 SLP090 T00721072 53001
Temperature: 7.2°C ( 45°F)
Dewpoint: -7.2°C ( 19°F) [RH = 35%]
Pressure (altimeter):29.80 inches Hg (1009.2 mb) [Sea level pressure: 1009.0 mb]
Winds:from the W (280 degrees) at 22 MPH (19 knots; 9.8 m/s) gusting to 36 MPH (31 knots; 15.9 m/s)
Visibility:10 or more sm (16+ km)
Ceiling:7500 feet AGL
Clouds: broken clouds at 7500 feet AGL, overcast cloud deck at 9000 feet AGL
Text:KPOU 221953Z 29014G27KT 10SM BKN065 OVC075 08/M06 A2979 RMK AO2 PK WND 25028/1940 SLP086 T00831061
Temperature: 8.3°C ( 47°F)
Dewpoint: -6.1°C ( 21°F) [RH = 35%]
Pressure (altimeter):29.79 inches Hg (1008.9 mb) [Sea level pressure: 1008.6 mb]
Winds:from the WNW (290 degrees) at 16 MPH (14 knots; 7.2 m/s) gusting to 31 MPH (27 knots; 13.9 m/s)
Visibility:10 or more sm (16+ km)
Ceiling:6500 feet AGL
Clouds: broken clouds at 6500 feet AGL, overcast cloud deck at 7500 feet AGL
Text:KPOU 221853Z 28015G26KT 10SM BKN060 BKN075 07/M06 A2980 RMK AO2 PK WND 29031/1813 SLP089 T00671061
Temperature: 6.7°C ( 44°F)
Dewpoint: -6.1°C ( 21°F) [RH = 39%]
Pressure (altimeter):29.80 inches Hg (1009.2 mb) [Sea level pressure: 1008.9 mb]
Winds:from the W (280 degrees) at 17 MPH (15 knots; 7.7 m/s) gusting to 30 MPH (26 knots; 13.4 m/s)
Visibility:10 or more sm (16+ km)
Ceiling:6000 feet AGL
Clouds: broken clouds at 6000 feet AGL, broken clouds at 7500 feet AGL
Text:KPOU 221753Z 28016G27KT 10SM BKN070 07/M07 A2980 RMK AO2 PK WND 30028/1724 SLP089 T00671072 10072 20017 55000
Temperature: 6.7°C ( 44°F)
Dewpoint: -7.2°C ( 19°F) [RH = 36%]
Pressure (altimeter):29.80 inches Hg (1009.2 mb) [Sea level pressure: 1008.9 mb]
Winds:from the W (280 degrees) at 18 MPH (16 knots; 8.2 m/s) gusting to 31 MPH (27 knots; 13.9 m/s)
Visibility:10 or more sm (16+ km)
Ceiling:7000 feet AGL
Clouds: broken clouds at 7000 feet AGL
Text:KPOU 221653Z 30019G26KT 10SM BKN075 07/M08 A2979 RMK AO2 PK WND 25027/1559 SLP087 T00671078
Temperature: 6.7°C ( 44°F)
Dewpoint: -7.8°C ( 18°F) [RH = 35%]
Pressure (altimeter):29.79 inches Hg (1008.9 mb) [Sea level pressure: 1008.7 mb]
Winds:from the WNW (300 degrees) at 22 MPH (19 knots; 9.8 m/s) gusting to 30 MPH (26 knots; 13.4 m/s)
Visibility:10 or more sm (16+ km)
Ceiling:7500 feet AGL
Clouds: broken clouds at 7500 feet AGL
Text:KPOU 221553Z 25016G25KT 10SM BKN070 06/M08 A2980 RMK AO2 PK WND 27029/1521 SLP089 T00561078
Temperature: 5.6°C ( 42°F)
Dewpoint: -7.8°C ( 18°F) [RH = 37%]
Pressure (altimeter):29.80 inches Hg (1009.2 mb) [Sea level pressure: 1008.9 mb]
Winds:from the WSW (250 degrees) at 18 MPH (16 knots; 8.2 m/s) gusting to 29 MPH (25 knots; 12.9 m/s)
Visibility:10 or more sm (16+ km)
Ceiling:7000 feet AGL
Clouds: broken clouds at 7000 feet AGL
Text:KPOU 221453Z 29014G24KT 10SM BKN060 04/M07 A2980 RMK AO2 PK WND 27027/1424 SLP089 T00441072 50005
Temperature: 4.4°C ( 40°F)
Dewpoint: -7.2°C ( 19°F) [RH = 43%]
Pressure (altimeter):29.80 inches Hg (1009.2 mb) [Sea level pressure: 1008.9 mb]
Winds:from the WNW (290 degrees) at 16 MPH (14 knots; 7.2 m/s) gusting to 28 MPH (24 knots; 12.3 m/s)
Visibility:10 or more sm (16+ km)
Ceiling:6000 feet AGL
Clouds: broken clouds at 6000 feet AGL
Text:KPOU 221353Z 26016G21KT 10SM BKN055 OVC070 03/M06 A2980 RMK AO2 SLP090 T00331056
Temperature: 3.3°C ( 38°F)
Dewpoint: -5.6°C ( 22°F) [RH = 52%]
Pressure (altimeter):29.80 inches Hg (1009.2 mb) [Sea level pressure: 1009.0 mb]
Winds:from the W (260 degrees) at 18 MPH (16 knots; 8.2 m/s) gusting to 24 MPH (21 knots; 10.8 m/s)
Visibility:10 or more sm (16+ km)
Ceiling:5500 feet AGL
Clouds: broken clouds at 5500 feet AGL, overcast cloud deck at 7000 feet AGL
Text:KPOU 221253Z 27015G23KT 10SM OVC060 02/M07 A2979 RMK AO2 SLP086 T00221072
Temperature: 2.2°C ( 36°F)
Dewpoint: -7.2°C ( 19°F) [RH = 50%]
Pressure (altimeter):29.79 inches Hg (1008.9 mb) [Sea level pressure: 1008.6 mb]
Winds:from the W (270 degrees) at 17 MPH (15 knots; 7.7 m/s) gusting to 26 MPH (23 knots; 11.8 m/s)
Visibility:10 or more sm (16+ km)
Ceiling:6000 feet AGL
Clouds: overcast cloud deck at 6000 feet AGL
Text:KPOU 221153Z 27013G19KT 10SM OVC065 02/M07 A2978 RMK AO2 SLP084 70036 T00221072 10022 20006 53017
Temperature: 2.2°C ( 36°F)
Dewpoint: -7.2°C ( 19°F) [RH = 50%]
Pressure (altimeter):29.78 inches Hg (1008.5 mb) [Sea level pressure: 1008.4 mb]
Winds:from the W (270 degrees) at 15 MPH (13 knots; 6.7 m/s) gusting to 22 MPH (19 knots; 9.8 m/s)
Visibility:10 or more sm (16+ km)
Ceiling:6500 feet AGL
Clouds: overcast cloud deck at 6500 feet AGL
Text:KPOU 221053Z 26010KT 10SM BKN060 01/M07 A2977 RMK AO2 SLP077 T00061072
Temperature: 0.6°C ( 33°F)
Dewpoint: -7.2°C ( 19°F) [RH = 56%]
Pressure (altimeter):29.77 inches Hg (1008.2 mb) [Sea level pressure: 1007.7 mb]
Winds:from the W (260 degrees) at 12 MPH (10 knots; 5.1 m/s)
Visibility:10 or more sm (16+ km)
Ceiling:6000 feet AGL
Clouds: broken clouds at 6000 feet AGL
Text:KPOU 220953Z AUTO 27012G21KT 10SM CLR 01/M08 A2975 RMK AO2 SLP071 T00061083 TSNO
Temperature: 0.6°C ( 33°F)
Dewpoint: -8.3°C ( 17°F) [RH = 51%]
Pressure (altimeter):29.75 inches Hg (1007.5 mb) [Sea level pressure: 1007.1 mb]
Winds:from the W (270 degrees) at 14 MPH (12 knots; 6.2 m/s) gusting to 24 MPH (21 knots; 10.8 m/s)
Visibility:10 or more sm (16+ km)
Ceiling:at least 12,000 feet AGL
Clouds:sky clear below 12,000 feet AGL
QC Flag:automated observation with no human augmentation
Text:KPOU 220853Z AUTO 27013G19KT 10SM CLR 01/M08 A2973 RMK AO2 SLP067 T00061078 53002 TSNO
Temperature: 0.6°C ( 33°F)
Dewpoint: -7.8°C ( 18°F) [RH = 53%]
Pressure (altimeter):29.73 inches Hg (1006.9 mb) [Sea level pressure: 1006.7 mb]
Winds:from the W (270 degrees) at 15 MPH (13 knots; 6.7 m/s) gusting to 22 MPH (19 knots; 9.8 m/s)
Visibility:10 or more sm (16+ km)
Ceiling:at least 12,000 feet AGL
Clouds:sky clear below 12,000 feet AGL
QC Flag:automated observation with no human augmentation
Text:KPOU 220753Z AUTO 26013KT 10SM CLR 01/M08 A2973 RMK AO2 SLP064 T00111078 TSNO
Temperature: 1.1°C ( 34°F)
Dewpoint: -7.8°C ( 18°F) [RH = 51%]
Pressure (altimeter):29.73 inches Hg (1006.9 mb) [Sea level pressure: 1006.4 mb]
Winds:from the W (260 degrees) at 15 MPH (13 knots; 6.7 m/s)
Visibility:10 or more sm (16+ km)
Ceiling:at least 12,000 feet AGL
Clouds:sky clear below 12,000 feet AGL
QC Flag:automated observation with no human augmentation
Text:KPOU 220653Z AUTO 26013KT 10SM CLR 01/M07 A2972 RMK AO2 SLP063 T00111072 TSNO
Temperature: 1.1°C ( 34°F)
Dewpoint: -7.2°C ( 19°F) [RH = 54%]
Pressure (altimeter):29.72 inches Hg (1006.5 mb) [Sea level pressure: 1006.3 mb]
Winds:from the W (260 degrees) at 15 MPH (13 knots; 6.7 m/s)
Visibility:10 or more sm (16+ km)
Ceiling:at least 12,000 feet AGL
Clouds:sky clear below 12,000 feet AGL
QC Flag:automated observation with no human augmentation
Text:KPOU 220553Z AUTO 28012G20KT 10SM BKN060 02/M07 A2973 RMK AO2 SLP064 T00221067 10044 20022 58008 TSNO
Temperature: 2.2°C ( 36°F)
Dewpoint: -6.7°C ( 20°F) [RH = 52%]
Pressure (altimeter):29.73 inches Hg (1006.9 mb) [Sea level pressure: 1006.4 mb]
Winds:from the W (280 degrees) at 14 MPH (12 knots; 6.2 m/s) gusting to 23 MPH (20 knots; 10.3 m/s)
Visibility:10 or more sm (16+ km)
Ceiling:6000 feet AGL
Clouds: broken clouds at 6000 feet AGL
QC Flag:automated observation with no human augmentation
Text:KPOU 220453Z AUTO 30007KT 10SM FEW047 OVC060 03/M06 A2974 RMK AO2 SLP068 T00281061 402060028 TSNO
Temperature: 2.8°C ( 37°F)
Dewpoint: -6.1°C ( 21°F) [RH = 52%]
Pressure (altimeter):29.74 inches Hg (1007.2 mb) [Sea level pressure: 1006.8 mb]
Winds:from the WNW (300 degrees) at 8 MPH (7 knots; 3.6 m/s)
Visibility:10 or more sm (16+ km)
Ceiling:6000 feet AGL
Clouds: few clouds at 4700 feet AGL, overcast cloud deck at 6000 feet AGL
QC Flag:automated observation with no human augmentation
Text:KPOU 220353Z AUTO 31009KT 10SM OVC055 03/M07 A2975 RMK AO2 SLP072 T00331067 TSNO
Temperature: 3.3°C ( 38°F)
Dewpoint: -6.7°C ( 20°F) [RH = 48%]
Pressure (altimeter):29.75 inches Hg (1007.5 mb) [Sea level pressure: 1007.2 mb]
Winds:from the NW (310 degrees) at 10 MPH (9 knots; 4.6 m/s)
Visibility:10 or more sm (16+ km)
Ceiling:5500 feet AGL
Clouds: overcast cloud deck at 5500 feet AGL
QC Flag:automated observation with no human augmentation
Text:KPOU 220253Z AUTO 31008KT 10SM OVC049 03/M06 A2976 RMK AO2 SLP074 T00331056 50019 TSNO
Temperature: 3.3°C ( 38°F)
Dewpoint: -5.6°C ( 22°F) [RH = 52%]
Pressure (altimeter):29.76 inches Hg (1007.9 mb) [Sea level pressure: 1007.4 mb]
Winds:from the NW (310 degrees) at 9 MPH (8 knots; 4.1 m/s)
Visibility:10 or more sm (16+ km)
Ceiling:4900 feet AGL
Clouds: overcast cloud deck at 4900 feet AGL
QC Flag:automated observation with no human augmentation